Terminal Aerodrome Forecast
Issued by NWS

Home | Current Version | Previous Version | Text Only | Print | Product List | Glossary On
Versions: 1 2 3 4 5 6 7 8 9 10 11 12 13 14 15 16 17 18 19 20 21 22 23 24 25 26 27 28 29 30 31 32 33 34
000
FTUS41 KRNK 212333
TAFBCB
TAF
KBCB 212333Z 2200/2224 15004KT P6SM BKN150
      TEMPO 2204/2208 4SM -SHRA OVC040
     FM220800 00000KT 5SM -SHRA BR OVC025
     FM221100 00000KT 4SM -RA OVC015
      TEMPO 2211/2215 2SM -RA OVC008
     FM221500 00000KT 3SM -DZ BR OVC005
     FM222200 00000KT 5SM BR BKN012=

USA.gov is the U.S. government's official web portal to all federal, state and local government web resources and services.